Hildegaard — C6QU3 — position and weather

sailwx.info

Track history (hours):
 
Tides and Currents Weather Stations Pressure Air Temp Water Temp Dewpoint Dewpoint Depression Visibility Wind Speed Wind Dir Waves Ship Positions

Hildegaard

Last reported at 2017-Dec-11 16:59 UTC. Time now 2017-Dec-12 08:35 UTC.
Position N 53°56' E 000°03'.

Length 248 m; draft 8.5 m.

Type: Ship (hazmat cat A). MMSI: 308574000.

Date/timePositionNaut miles runAvg speedWind from/ knotsBaromVisibWave heightAir tempDewpointWater temp
2017-Dec-11 16:59N 53°56' E 000°03'0 0.0
2017-Dec-11 14:35N 53°56' E 000°03'0 0.5
2017-Dec-11 14:29N 53°56' E 000°03'0 0.1
2017-Dec-11 13:59N 53°56' E 000°03'0 0.1
2017-Dec-11 13:29N 53°56' E 000°03'0 0.1
2017-Dec-11 12:44N 53°56' E 000°03'0 0.0
2017-Dec-11 12:23N 53°56' E 000°03'0 0.0
2017-Dec-11 11:59N 53°56' E 000°03'0 0.1
2017-Dec-11 11:29N 53°56' E 000°03'0 0.1
2017-Dec-11 10:59N 53°56' E 000°03'0 0.0
2017-Dec-11 10:29N 53°56' E 000°03'0 0.1
2017-Dec-11 09:59N 53°56' E 000°03'0 0.1
2017-Dec-11 09:29N 53°56' E 000°03'0 0.0
2017-Dec-11 08:41N 53°56' E 000°03'0 0.0
2017-Dec-11 08:20N 53°56' E 000°03'0 0.0
2017-Dec-11 07:59N 53°56' E 000°03'0 0.0
2017-Dec-11 07:05N 53°56' E 000°03'0 0.1
2017-Dec-11 06:53N 53°56' E 000°03'0 0.1
2017-Dec-11 03:35N 53°56' E 000°03'0 0.0
2017-Dec-11 00:17N 53°56' E 000°03'0 0.0
2017-Dec-10 23:50N 53°56' E 000°03'0 0.0
2017-Dec-10 23:23N 53°56' E 000°03'0 0.0
2017-Dec-10 22:59N 53°56' E 000°03'0 0.0
2017-Dec-10 22:23N 53°56' E 000°03'0 0.0
2017-Dec-10 21:59N 53°56' E 000°03'0 0.0
2017-Dec-10 21:29N 53°56' E 000°03'0 0.0
2017-Dec-10 20:59N 53°56' E 000°03'0 0.0
2017-Dec-10 20:29N 53°56' E 000°03'0 0.1
2017-Dec-10 19:59N 53°56' E 000°03'0 0.1
2017-Dec-10 19:26N 53°56' E 000°03'0 0.0
2017-Dec-10 18:59N 53°56' E 000°03'0 0.0
2017-Dec-10 17:47N 53°56' E 000°03'0 0.0
2017-Dec-10 17:29N 53°56' E 000°03'0 0.1
2017-Dec-10 13:43N 53°56' E 000°03'1 5.2
2017-Dec-10 13:30N 53°55' E 000°04'3 5.5
2017-Dec-10 13:00N 53°56' E 000°08'3 5.8
2017-Dec-10 12:30N 53°56' E 000°13'3 5.7
2017-Dec-10 12:00N 53°56' E 000°18'3 5.3
2017-Dec-10 11:27N 53°56' E 000°23'4 3.8
2017-Dec-10 10:21N 53°55' E 000°30'136 3.0
2017-Dec-08 13:36N 52°03' E 002°39'0 4.1
2017-Dec-08 13:29N 52°03' E 002°39'26 3.9
2017-Dec-08 06:47N 51°38' E 002°26'3 6.3
2017-Dec-08 06:15N 51°36' E 002°22'2 6.5
2017-Dec-08 05:54N 51°34' E 002°20'3 6.4
2017-Dec-08 05:25N 51°31' E 002°17'3 6.5
2017-Dec-08 05:00N 51°29' E 002°15'3 6.2
2017-Dec-08 04:30N 51°26' E 002°12'3 5.8
2017-Dec-08 04:00N 51°24' E 002°11'3 5.8
2017-Dec-08 03:30N 51°21' E 002°10'3 5.2
2017-Dec-08 03:00N 51°18' E 002°09'3 5.0
2017-Dec-08 02:30N 51°16' E 002°08'3 6.1
2017-Dec-08 02:00N 51°14' E 002°05'3 6.3
2017-Dec-08 01:30N 51°12' E 002°00'3 5.6
2017-Dec-08 01:00N 51°11' E 001°57'2 4.9
2017-Dec-08 00:30N 51°09' E 001°53'3 5.7
2017-Dec-08 00:00N 51°08' E 001°49'3 5.1
2017-Dec-07 23:30N 51°06' E 001°46'2 4.6
2017-Dec-07 23:00N 51°05' E 001°44'2 4.2
2017-Dec-07 22:31N 51°03' E 001°41'2 4.0
2017-Dec-07 22:00N 51°02' E 001°39'2 4.2
2017-Dec-07 21:30N 51°00' E 001°37'2 4.6
2017-Dec-07 21:00N 50°58' E 001°34'2 4.8
2017-Dec-07 20:30N 50°57' E 001°32'3 5.4
2017-Dec-07 20:00N 50°55' E 001°29'3 6.0
2017-Dec-07 19:30N 50°52' E 001°27'3 6.6
2017-Dec-07 19:00N 50°49' E 001°25'4 6.9
2017-Dec-07 18:28N 50°45' E 001°24'3 5.1
2017-Dec-07 17:56N 50°43' E 001°22'10 5.2
2017-Dec-07 16:01N 50°35' E 001°12'42 7.9
2017-Dec-07 10:41N 50°19' E 000°10'6 8.7
2017-Dec-07 10:02N 50°17' E 000°02'0 8.7
2017-Dec-07 10:00N 50°17' E 000°01'5 8.2
2017-Dec-07 09:24N 50°16' W 000°06'3 7.8
2017-Dec-07 09:00N 50°15' W 000°11'4 7.3
2017-Dec-07 08:30N 50°14' W 000°16'48 5.9
2017-Dec-07 00:15N 50°03' W 001°30'3 8.8
2017-Dec-06 23:57N 50°03' W 001°34'4 9.2
2017-Dec-06 23:30N 50°02' W 001°40'5 9.9
2017-Dec-06 22:57N 50°00' W 001°48'1510.2
2017-Dec-06 21:31N 49°57' W 002°11'010.4
2017-Dec-06 21:30N 49°57' W 002°11'8 9.4
2017-Dec-06 20:38N 49°55' W 002°23'  
2017-Dec-03 02:51N 46°57' W 002°44'2 5.7
2017-Dec-03 02:30N 46°58' W 002°42'3 5.5
2017-Dec-03 02:00N 46°59' W 002°38'3 5.3
2017-Dec-03 01:29N 47°01' W 002°35'3 5.3
2017-Dec-03 01:00N 47°02' W 002°32'3 5.2
2017-Dec-03 00:30N 47°04' W 002°28'3 6.6
2017-Dec-03 00:00N 47°05' W 002°24'4 7.0
2017-Dec-02 23:29N 47°08' W 002°21'511.0
2017-Dec-02 23:00N 47°13' W 002°17'510.1
2017-Dec-02 22:30N 47°16' W 002°11'4 7.2
2017-Dec-02 22:00N 47°18' W 002°07'0 0.1
2017-Dec-02 16:36N 47°18' W 002°06'0 0.0
2017-Dec-02 14:42N 47°18' W 002°06'0 0.0
2017-Dec-02 12:18N 47°18' W 002°06'0 0.0
2017-Dec-02 11:51N 47°18' W 002°06'0 0.0
2017-Dec-02 11:30N 47°18' W 002°06'0 0.0
2017-Dec-02 08:54N 47°18' W 002°06'0 0.0
2017-Dec-02 08:30N 47°18' W 002°06'0 0.0
2017-Dec-02 07:00N 47°18' W 002°06'0 0.0
2017-Dec-02 06:30N 47°18' W 002°06'0 0.0
2017-Dec-02 05:57N 47°18' W 002°06'0 0.0
2017-Dec-02 05:30N 47°18' W 002°06'0 0.0
2017-Dec-02 05:00N 47°18' W 002°06'0 0.0
2017-Dec-02 04:24N 47°18' W 002°06'0 0.0
2017-Dec-02 04:00N 47°18' W 002°06'0 0.0
2017-Dec-02 03:27N 47°18' W 002°06'0 0.0
2017-Dec-02 02:51N 47°18' W 002°06'0 0.0
2017-Dec-02 02:15N 47°18' W 002°06'0 0.0
2017-Dec-02 02:00N 47°18' W 002°06'0 0.0
2017-Dec-02 01:30N 47°18' W 002°06'0 0.0
2017-Dec-02 00:57N 47°18' W 002°06'0 0.0
2017-Dec-01 22:39N 47°18' W 002°06'0 0.0
2017-Dec-01 21:30N 47°18' W 002°06'0 0.0
2017-Dec-01 20:57N 47°18' W 002°06'0 0.0
2017-Dec-01 20:21N 47°18' W 002°06'0 0.0
2017-Dec-01 20:00N 47°18' W 002°06'0 0.0
2017-Dec-01 19:30N 47°18' W 002°06'0 0.0
2017-Dec-01 19:00N 47°18' W 002°06'0 0.0
2017-Dec-01 18:30N 47°18' W 002°06'  
Track history (hours):
 
Tides and Currents Weather Stations Pressure Air Temp Water Temp Dewpoint Dewpoint Depression Visibility Wind Speed Wind Dir Waves Ship Positions

Hildegaard

Last reported at 2017-Dec-11 16:59 UTC. Time now 2017-Dec-12 08:35 UTC.
Position N 53°56' E 000°03'.

Length 248 m; draft 8.5 m.

Type: Ship (hazmat cat A). MMSI: 308574000.

Date/timePositionNaut miles runAvg speedWind from/ knotsBaromVisibWave heightAir tempDewpointWater temp
2017-Dec-11 16:59N 53°56' E 000°03'0 0.0
2017-Dec-11 14:35N 53°56' E 000°03'0 0.5
2017-Dec-11 14:29N 53°56' E 000°03'0 0.1
2017-Dec-11 13:59N 53°56' E 000°03'0 0.1
2017-Dec-11 13:29N 53°56' E 000°03'0 0.1
2017-Dec-11 12:44N 53°56' E 000°03'0 0.0
2017-Dec-11 12:23N 53°56' E 000°03'0 0.0
2017-Dec-11 11:59N 53°56' E 000°03'0 0.1
2017-Dec-11 11:29N 53°56' E 000°03'0 0.1
2017-Dec-11 10:59N 53°56' E 000°03'0 0.0
2017-Dec-11 10:29N 53°56' E 000°03'0 0.1
2017-Dec-11 09:59N 53°56' E 000°03'0 0.1
2017-Dec-11 09:29N 53°56' E 000°03'0 0.0
2017-Dec-11 08:41N 53°56' E 000°03'0 0.0
2017-Dec-11 08:20N 53°56' E 000°03'0 0.0
2017-Dec-11 07:59N 53°56' E 000°03'0 0.0
2017-Dec-11 07:05N 53°56' E 000°03'0 0.1
2017-Dec-11 06:53N 53°56' E 000°03'0 0.1
2017-Dec-11 03:35N 53°56' E 000°03'0 0.0
2017-Dec-11 00:17N 53°56' E 000°03'0 0.0
2017-Dec-10 23:50N 53°56' E 000°03'0 0.0
2017-Dec-10 23:23N 53°56' E 000°03'0 0.0
2017-Dec-10 22:59N 53°56' E 000°03'0 0.0
2017-Dec-10 22:23N 53°56' E 000°03'0 0.0
2017-Dec-10 21:59N 53°56' E 000°03'0 0.0
2017-Dec-10 21:29N 53°56' E 000°03'0 0.0
2017-Dec-10 20:59N 53°56' E 000°03'0 0.0
2017-Dec-10 20:29N 53°56' E 000°03'0 0.1
2017-Dec-10 19:59N 53°56' E 000°03'0 0.1
2017-Dec-10 19:26N 53°56' E 000°03'0 0.0
2017-Dec-10 18:59N 53°56' E 000°03'0 0.0
2017-Dec-10 17:47N 53°56' E 000°03'0 0.0
2017-Dec-10 17:29N 53°56' E 000°03'0 0.1
2017-Dec-10 13:43N 53°56' E 000°03'1 5.2
2017-Dec-10 13:30N 53°55' E 000°04'3 5.5
2017-Dec-10 13:00N 53°56' E 000°08'3 5.8
2017-Dec-10 12:30N 53°56' E 000°13'3 5.7
2017-Dec-10 12:00N 53°56' E 000°18'3 5.3
2017-Dec-10 11:27N 53°56' E 000°23'4 3.8
2017-Dec-10 10:21N 53°55' E 000°30'136 3.0
2017-Dec-08 13:36N 52°03' E 002°39'0 4.1
2017-Dec-08 13:29N 52°03' E 002°39'26 3.9
2017-Dec-08 06:47N 51°38' E 002°26'3 6.3
2017-Dec-08 06:15N 51°36' E 002°22'2 6.5
2017-Dec-08 05:54N 51°34' E 002°20'3 6.4
2017-Dec-08 05:25N 51°31' E 002°17'3 6.5
2017-Dec-08 05:00N 51°29' E 002°15'3 6.2
2017-Dec-08 04:30N 51°26' E 002°12'3 5.8
2017-Dec-08 04:00N 51°24' E 002°11'3 5.8
2017-Dec-08 03:30N 51°21' E 002°10'3 5.2
2017-Dec-08 03:00N 51°18' E 002°09'3 5.0
2017-Dec-08 02:30N 51°16' E 002°08'3 6.1
2017-Dec-08 02:00N 51°14' E 002°05'3 6.3
2017-Dec-08 01:30N 51°12' E 002°00'3 5.6
2017-Dec-08 01:00N 51°11' E 001°57'2 4.9
2017-Dec-08 00:30N 51°09' E 001°53'3 5.7
2017-Dec-08 00:00N 51°08' E 001°49'3 5.1
2017-Dec-07 23:30N 51°06' E 001°46'2 4.6
2017-Dec-07 23:00N 51°05' E 001°44'2 4.2
2017-Dec-07 22:31N 51°03' E 001°41'2 4.0
2017-Dec-07 22:00N 51°02' E 001°39'2 4.2
2017-Dec-07 21:30N 51°00' E 001°37'2 4.6
2017-Dec-07 21:00N 50°58' E 001°34'2 4.8
2017-Dec-07 20:30N 50°57' E 001°32'3 5.4
2017-Dec-07 20:00N 50°55' E 001°29'3 6.0
2017-Dec-07 19:30N 50°52' E 001°27'3 6.6
2017-Dec-07 19:00N 50°49' E 001°25'4 6.9
2017-Dec-07 18:28N 50°45' E 001°24'3 5.1
2017-Dec-07 17:56N 50°43' E 001°22'10 5.2
2017-Dec-07 16:01N 50°35' E 001°12'42 7.9
2017-Dec-07 10:41N 50°19' E 000°10'6 8.7
2017-Dec-07 10:02N 50°17' E 000°02'0 8.7
2017-Dec-07 10:00N 50°17' E 000°01'5 8.2
2017-Dec-07 09:24N 50°16' W 000°06'3 7.8
2017-Dec-07 09:00N 50°15' W 000°11'4 7.3
2017-Dec-07 08:30N 50°14' W 000°16'48 5.9
2017-Dec-07 00:15N 50°03' W 001°30'3 8.8
2017-Dec-06 23:57N 50°03' W 001°34'4 9.2
2017-Dec-06 23:30N 50°02' W 001°40'5 9.9
2017-Dec-06 22:57N 50°00' W 001°48'1510.2
2017-Dec-06 21:31N 49°57' W 002°11'010.4
2017-Dec-06 21:30N 49°57' W 002°11'8 9.4
2017-Dec-06 20:38N 49°55' W 002°23'  
2017-Dec-03 02:51N 46°57' W 002°44'2 5.7
2017-Dec-03 02:30N 46°58' W 002°42'3 5.5
2017-Dec-03 02:00N 46°59' W 002°38'3 5.3
2017-Dec-03 01:29N 47°01' W 002°35'3 5.3
2017-Dec-03 01:00N 47°02' W 002°32'3 5.2
2017-Dec-03 00:30N 47°04' W 002°28'3 6.6
2017-Dec-03 00:00N 47°05' W 002°24'4 7.0
2017-Dec-02 23:29N 47°08' W 002°21'511.0
2017-Dec-02 23:00N 47°13' W 002°17'510.1
2017-Dec-02 22:30N 47°16' W 002°11'4 7.2
2017-Dec-02 22:00N 47°18' W 002°07'0 0.1
2017-Dec-02 16:36N 47°18' W 002°06'0 0.0
2017-Dec-02 14:42N 47°18' W 002°06'0 0.0
2017-Dec-02 12:18N 47°18' W 002°06'0 0.0
2017-Dec-02 11:51N 47°18' W 002°06'0 0.0
2017-Dec-02 11:30N 47°18' W 002°06'0 0.0
2017-Dec-02 08:54N 47°18' W 002°06'0 0.0
2017-Dec-02 08:30N 47°18' W 002°06'0 0.0
2017-Dec-02 07:00N 47°18' W 002°06'0 0.0
2017-Dec-02 06:30N 47°18' W 002°06'0 0.0
2017-Dec-02 05:57N 47°18' W 002°06'0 0.0
2017-Dec-02 05:30N 47°18' W 002°06'0 0.0
2017-Dec-02 05:00N 47°18' W 002°06'0 0.0
2017-Dec-02 04:24N 47°18' W 002°06'0 0.0
2017-Dec-02 04:00N 47°18' W 002°06'0 0.0
2017-Dec-02 03:27N 47°18' W 002°06'0 0.0
2017-Dec-02 02:51N 47°18' W 002°06'0 0.0
2017-Dec-02 02:15N 47°18' W 002°06'0 0.0
2017-Dec-02 02:00N 47°18' W 002°06'0 0.0
2017-Dec-02 01:30N 47°18' W 002°06'0 0.0
2017-Dec-02 00:57N 47°18' W 002°06'0 0.0
2017-Dec-01 22:39N 47°18' W 002°06'0 0.0
2017-Dec-01 21:30N 47°18' W 002°06'0 0.0
2017-Dec-01 20:57N 47°18' W 002°06'0 0.0
2017-Dec-01 20:21N 47°18' W 002°06'0 0.0
2017-Dec-01 20:00N 47°18' W 002°06'0 0.0
2017-Dec-01 19:30N 47°18' W 002°06'0 0.0
2017-Dec-01 19:00N 47°18' W 002°06'0 0.0
2017-Dec-01 18:30N 47°18' W 002°06'  

Dump ship's entire track history